Santa Terezinha, Brazil
Current Conditions -  °F | °C
As of 12:00 AM on Wednesday 26 Nov 2014 (Local Time) from SBNF Reporting Station
Light Rain Light Rain  
Wind Chill: 77°   Ceiling: 700
Heat Index: 78°   Visibility: 2.1mi
Dew Point: 75°   Wind: 14mph
Humidity: 94%   Direction: 60°ENE
Pressure: 29.77"   Gusts: NA
Location:  26.78°S, 50.01°W
Report Text: SBNF 260200Z 06012KT 3500 -RA BKN007 OVC090 25/24 Q1008
Loading
Personal Weather Stations






























Interactive Weather Map New forecast layout! Learn more

10-Day Weather Forecast

Advertisements
Track Severe Weather on mobile